Time;durP1;ratioP1;P1;durP2;ratioP2;P2;SDS_P1;SDS_P2;PMS_P1;PMS_P2;Temp;Humidity;BMP_temperature;BMP_pressure;BME280_temperature;BME280_humidity;BME280_pressure;Samples;Min_cycle;Max_cycle;Signal;HPM_P1;HPM_P2
2023/05/22 00:00:15;;;;;;;2.83;2.70;;;;;;;17.53;81.73;95004.81;4380507;32;20180;-68
2023/05/22 00:02:42;;;;;;;2.97;2.87;;;;;;;17.54;81.24;95010.94;4376122;32;20230;-67
2023/05/22 00:05:09;;;;;;;3.23;3.00;;;;;;;17.47;81.82;95011.53;4362319;32;20272;-68
2023/05/22 00:07:35;;;;;;;2.30;2.20;;;;;;;17.58;81.13;95008.37;4366929;32;20195;-67
2023/05/22 00:10:00;;;;;;;2.30;2.20;;;;;;;17.44;81.69;95012.25;4367270;32;20181;-67
2023/05/22 00:12:25;;;;;;;2.50;2.40;;;;;;;17.45;81.85;95010.34;4365119;32;20239;-67
2023/05/22 00:14:51;;;;;;;2.53;2.43;;;;;;;17.39;81.45;95019.75;4366122;32;20235;-67
2023/05/22 00:17:17;;;;;;;3.70;3.23;;;;;;;17.44;81.75;95014.16;4366535;32;20185;-67
2023/05/22 00:19:42;;;;;;;2.37;2.27;;;;;;;17.46;81.64;95017.25;4364975;32;20195;-67
2023/05/22 00:22:08;;;;;;;3.17;2.87;;;;;;;17.43;81.56;95012.59;4364077;32;20194;-67
2023/05/22 00:24:34;;;;;;;3.47;3.20;;;;;;;17.30;82.41;95016.44;4363407;32;20327;-67
2023/05/22 00:26:59;;;;;;;2.33;2.20;;;;;;;17.37;81.93;95020.09;4358768;32;20190;-67
2023/05/22 00:29:24;;;;;;;2.87;2.77;;;;;;;17.41;81.78;95012.16;4366002;32;20219;-67
2023/05/22 00:31:50;;;;;;;3.93;3.63;;;;;;;17.23;82.71;95016.28;4366899;32;20185;-67
2023/05/22 00:34:15;;;;;;;3.07;2.80;;;;;;;17.25;81.99;95019.41;4370643;32;20287;-67
2023/05/22 00:36:40;;;;;;;3.43;3.23;;;;;;;17.03;83.00;95018.81;4373157;32;20193;-67
2023/05/22 00:39:06;;;;;;;2.33;2.23;;;;;;;17.15;83.23;95010.72;4363968;32;20188;-67
2023/05/22 00:41:34;;;;;;;4.03;3.10;;;;;;;17.02;83.39;95006.53;4364656;32;20207;-67
2023/05/22 00:44:00;;;;;;;5.10;3.17;;;;;;;17.02;82.95;95011.13;4360107;32;20188;-67
2023/05/22 00:46:25;;;;;;;2.80;2.60;;;;;;;16.98;82.81;95015.59;4367338;32;20286;-67
2023/05/22 00:48:51;;;;;;;2.13;2.03;;;;;;;17.06;82.95;95014.66;4364896;32;20215;-67
2023/05/22 00:51:20;;;;;;;3.30;3.07;;;;;;;17.14;82.73;95011.06;4370853;32;20189;-67
2023/05/22 00:53:47;;;;;;;3.50;3.30;;;;;;;17.03;83.02;95010.00;4366976;32;20193;-67
2023/05/22 00:56:14;;;;;;;2.17;2.07;;;;;;;17.01;82.10;95009.56;4370206;32;20211;-67
2023/05/22 00:58:40;;;;;;;1.87;1.83;;;;;;;17.00;82.67;95006.09;4367241;32;20208;-67
2023/05/22 01:01:08;;;;;;;3.47;2.80;;;;;;;16.98;82.63;95011.03;4377423;32;20232;-67
2023/05/22 01:03:43;;;;;;;3.13;2.93;;;;;;;16.83;82.81;95014.44;4373366;32;20240;-67
2023/05/22 01:06:13;;;;;;;2.10;2.00;;;;;;;16.95;82.21;95010.91;4388497;32;20256;-67
2023/05/22 01:08:38;;;;;;;4.07;3.73;;;;;;;16.82;81.97;95013.66;4364414;32;20310;-67
2023/05/22 01:11:21;;;;;;;3.53;3.07;;;;;;;16.81;81.62;95005.94;4366922;32;20189;-67
2023/05/22 01:13:58;;;;;;;3.20;3.00;;;;;;;16.85;82.62;95017.53;4386037;32;20204;-67
2023/05/22 01:16:28;;;;;;;4.70;3.93;;;;;;;16.71;83.01;95017.13;4372343;32;20199;-66
2023/05/22 01:19:29;;;;;;;2.27;2.17;;;;;;;16.61;83.30;95017.59;4381463;32;20192;-67
2023/05/22 01:22:16;;;;;;;2.93;2.67;;;;;;;16.62;83.84;95014.56;4367409;32;20190;-67
2023/05/22 01:25:05;;;;;;;3.97;3.67;;;;;;;16.59;82.16;95011.78;4360966;32;20185;-67
2023/05/22 01:28:01;;;;;;;3.83;3.53;;;;;;;16.53;83.90;95026.53;4370661;32;20199;-67
2023/05/22 01:30:53;;;;;;;6.97;3.57;;;;;;;16.67;82.40;95025.06;4365229;32;20220;-67
2023/05/22 01:33:20;;;;;;;2.83;2.63;;;;;;;16.64;82.88;95024.94;4369229;32;20181;-66
2023/05/22 01:35:50;;;;;;;3.37;3.17;;;;;;;16.62;82.73;95033.31;4370222;32;20181;-67
2023/05/22 01:38:16;;;;;;;5.03;3.17;;;;;;;16.58;82.11;95034.34;4359227;32;20189;-67
2023/05/22 01:40:43;;;;;;;2.77;2.67;;;;;;;16.44;83.13;95040.03;4353532;32;20203;-67
2023/05/22 01:43:09;;;;;;;3.70;3.40;;;;;;;16.55;83.38;95035.00;4371338;32;20279;-67
2023/05/22 01:45:34;;;;;;;2.93;2.73;;;;;;;16.65;83.34;95026.50;4366394;32;20196;-67
2023/05/22 01:48:00;;;;;;;3.00;2.20;;;;;;;16.57;82.38;95038.13;4377755;32;20193;-67
2023/05/22 01:50:25;;;;;;;3.80;3.60;;;;;;;16.58;83.22;95039.69;4365592;32;20224;-66
2023/05/22 01:53:13;;;;;;;4.23;3.83;;;;;;;16.44;83.07;95034.66;4375261;32;20186;-67
2023/05/22 01:56:00;;;;;;;3.60;3.40;;;;;;;16.42;83.65;95036.91;4371429;32;20326;-67
2023/05/22 01:58:51;;;;;;;2.80;2.70;;;;;;;16.32;83.77;95043.50;4361896;32;20202;-67
2023/05/22 02:01:20;;;;;;;2.70;2.60;;;;;;;16.24;83.88;95040.94;4370106;32;20210;-67
2023/05/22 02:03:50;;;;;;;2.93;2.83;;;;;;;16.19;84.93;95044.66;4373323;32;20207;-67
2023/05/22 02:06:18;;;;;;;4.23;2.83;;;;;;;16.11;84.25;95043.62;4372964;32;20188;-67
2023/05/22 02:08:44;;;;;;;2.83;2.70;;;;;;;16.32;84.66;95043.50;4364649;32;20192;-67
2023/05/22 02:11:12;;;;;;;2.63;2.53;;;;;;;16.34;83.89;95043.19;4365929;32;20227;-67
2023/05/22 02:13:38;;;;;;;6.27;3.57;;;;;;;16.09;84.82;95039.72;4367203;32;20256;-67
2023/05/22 02:16:06;;;;;;;2.97;2.77;;;;;;;16.29;83.88;95038.81;4359555;32;20205;-67
2023/05/22 02:18:31;;;;;;;3.23;3.03;;;;;;;16.16;84.43;95045.31;4379232;32;20208;-67
2023/05/22 02:20:58;;;;;;;9.83;2.83;;;;;;;16.09;84.14;95045.84;4378622;32;20195;-67
2023/05/22 02:23:25;;;;;;;2.77;2.67;;;;;;;16.24;83.82;95044.41;4356463;32;20185;-67
2023/05/22 02:25:51;;;;;;;3.13;2.90;;;;;;;16.35;83.57;95050.88;4363339;32;20250;-66
2023/05/22 02:28:16;;;;;;;3.40;3.20;;;;;;;16.20;83.66;95050.78;4385180;32;20188;-67
2023/05/22 02:30:42;;;;;;;3.10;2.90;;;;;;;16.26;83.44;95047.53;4371278;32;20196;-67
2023/05/22 02:33:08;;;;;;;3.23;2.93;;;;;;;16.35;82.49;95045.53;4367637;32;20185;-67
2023/05/22 02:35:34;;;;;;;3.43;3.23;;;;;;;16.17;82.02;95044.19;4374935;32;20204;-66
2023/05/22 02:37:59;;;;;;;2.47;2.37;;;;;;;16.22;83.53;95043.94;4371440;32;20184;-67
2023/05/22 02:40:25;;;;;;;2.93;2.67;;;;;;;16.18;83.28;95031.59;4371056;32;20203;-67
2023/05/22 02:42:50;;;;;;;2.57;2.43;;;;;;;16.21;82.35;95037.03;4367591;32;20196;-67
2023/05/22 02:45:16;;;;;;;2.53;2.43;;;;;;;16.01;83.49;95040.59;4370659;32;20288;-67
2023/05/22 02:47:41;;;;;;;3.27;2.93;;;;;;;16.07;82.76;95037.38;4366777;32;20177;-67
2023/05/22 02:50:07;;;;;;;2.43;2.27;;;;;;;16.11;82.04;95034.81;4367749;32;20228;-67
2023/05/22 02:52:32;;;;;;;4.60;3.53;;;;;;;16.04;82.49;95034.59;4373324;32;20239;-67
2023/05/22 02:54:57;;;;;;;2.30;2.20;;;;;;;16.15;81.42;95038.38;4365502;32;20216;-67
2023/05/22 02:57:23;;;;;;;2.33;2.23;;;;;;;16.14;81.19;95031.47;4373805;32;20244;-67
2023/05/22 02:59:48;;;;;;;3.13;3.03;;;;;;;16.05;81.56;95030.78;4368244;32;20231;-66
2023/05/22 03:02:16;;;;;;;3.40;3.10;;;;;;;15.98;81.75;95034.03;4383403;32;20181;-67
2023/05/22 03:04:41;;;;;;;2.10;2.00;;;;;;;15.96;80.95;95038.16;4366767;32;20229;-67
2023/05/22 03:07:07;;;;;;;2.40;2.30;;;;;;;16.10;80.49;95043.97;4369045;32;20220;-67
2023/05/22 03:09:32;;;;;;;2.30;2.13;;;;;;;16.04;80.91;95048.75;4366463;32;20184;-67
2023/05/22 03:11:57;;;;;;;2.37;2.20;;;;;;;16.10;80.05;95036.72;4379030;32;20216;-67
2023/05/22 03:14:23;;;;;;;1.67;1.67;;;;;;;16.07;80.34;95041.94;4366937;32;20185;-66
2023/05/22 03:16:48;;;;;;;2.47;2.27;;;;;;;16.07;79.16;95034.69;4370870;32;20243;-65
2023/05/22 03:19:15;;;;;;;2.50;2.17;;;;;;;16.07;79.59;95044.63;4370667;32;20185;-67
2023/05/22 03:21:43;;;;;;;2.47;2.37;;;;;;;16.01;79.27;95038.72;4366403;32;20208;-67
2023/05/22 03:24:08;;;;;;;2.20;2.10;;;;;;;16.02;79.74;95045.63;4367357;32;20268;-67
2023/05/22 03:26:34;;;;;;;2.03;1.93;;;;;;;16.00;78.32;95044.41;4377144;32;20191;-67
2023/05/22 03:28:59;;;;;;;2.50;2.40;;;;;;;15.92;78.96;95045.28;4368616;32;20242;-67
2023/05/22 03:31:27;;;;;;;2.13;2.07;;;;;;;15.98;79.49;95050.09;4368646;32;20197;-68
2023/05/22 03:33:52;;;;;;;1.90;1.90;;;;;;;16.05;80.03;95057.56;4355385;32;20185;-67
2023/05/22 03:36:20;;;;;;;1.93;1.93;;;;;;;15.94;79.46;95054.56;4375343;32;20264;-67
2023/05/22 03:38:45;;;;;;;1.70;1.70;;;;;;;15.74;80.10;95061.56;4364599;32;20220;-67
2023/05/22 03:41:11;;;;;;;2.03;1.93;;;;;;;15.79;80.15;95072.00;4388255;32;20193;-67
2023/05/22 03:43:36;;;;;;;2.43;2.33;;;;;;;15.82;79.72;95060.66;4375405;32;20254;-67
2023/05/22 03:46:01;;;;;;;3.03;2.83;;;;;;;15.75;78.22;95057.00;4381925;32;20192;-67
2023/05/22 03:48:26;;;;;;;1.77;1.67;;;;;;;15.63;81.33;95064.97;4362188;32;20207;-67
2023/05/22 03:50:52;;;;;;;1.63;1.63;;;;;;;15.70;80.44;95066.00;4373658;32;20197;-67
2023/05/22 03:53:17;;;;;;;1.93;1.83;;;;;;;15.62;81.57;95058.06;4377951;32;20200;-67
2023/05/22 03:55:42;;;;;;;1.97;1.87;;;;;;;15.52;81.11;95064.59;4365538;32;20189;-67
2023/05/22 03:58:08;;;;;;;1.67;1.67;;;;;;;15.59;80.87;95058.75;4388526;32;20283;-67
2023/05/22 04:00:33;;;;;;;2.83;2.73;;;;;;;15.75;80.77;95063.13;4367490;32;20301;-67
2023/05/22 04:02:59;;;;;;;2.13;2.03;;;;;;;15.42;80.55;95065.00;4364299;32;20216;-67
2023/05/22 04:05:24;;;;;;;2.00;1.90;;;;;;;15.74;80.98;95069.56;4366683;32;20189;-67
2023/05/22 04:07:51;;;;;;;3.33;3.10;;;;;;;15.80;80.35;95062.09;4372583;32;20207;-67
2023/05/22 04:10:17;;;;;;;3.07;2.80;;;;;;;15.85;79.87;95066.47;4375432;32;20194;-67
2023/05/22 04:12:42;;;;;;;1.67;1.67;;;;;;;15.69;80.57;95069.78;4366006;32;20205;-67
2023/05/22 04:15:08;;;;;;;1.97;1.90;;;;;;;15.62;81.67;95074.88;4364531;32;20260;-67
2023/05/22 04:17:38;;;;;;;2.30;2.20;;;;;;;15.58;81.54;95074.00;4362440;32;20270;-67
2023/05/22 04:20:05;;;;;;;2.17;2.07;;;;;;;15.74;81.01;95076.81;4361477;32;20186;-67
2023/05/22 04:22:30;;;;;;;2.57;2.47;;;;;;;15.75;81.23;95076.50;4370249;32;20200;-67
2023/05/22 04:24:56;;;;;;;2.23;2.13;;;;;;;15.77;81.24;95074.28;4363436;32;20240;-67
2023/05/22 04:27:21;;;;;;;2.30;2.20;;;;;;;15.79;81.28;95072.00;4366585;32;20185;-67
2023/05/22 04:29:49;;;;;;;2.27;2.07;;;;;;;15.68;80.44;95072.78;4365561;32;20241;-67
2023/05/22 04:32:17;;;;;;;2.90;2.70;;;;;;;15.69;81.41;95069.00;4366493;32;20201;-67
2023/05/22 04:34:44;;;;;;;2.57;2.47;;;;;;;15.72;82.23;95073.69;4360697;32;20207;-67
2023/05/22 04:37:10;;;;;;;2.30;2.20;;;;;;;15.76;81.88;95072.69;4375148;32;20211;-67
2023/05/22 04:39:36;;;;;;;2.17;2.07;;;;;;;15.53;82.47;95070.72;4385103;32;20244;-67
2023/05/22 04:42:04;;;;;;;2.70;2.50;;;;;;;15.66;82.31;95080.34;4377121;32;20193;-67
2023/05/22 04:44:33;;;;;;;2.13;2.03;;;;;;;15.78;81.21;95075.06;4366131;32;20254;-67
2023/05/22 04:47:00;;;;;;;2.83;2.63;;;;;;;15.80;81.13;95070.91;4364149;32;20248;-67
2023/05/22 04:49:25;;;;;;;2.83;2.73;;;;;;;15.88;81.19;95077.28;4370399;32;20190;-66
2023/05/22 04:51:52;;;;;;;2.27;2.17;;;;;;;15.85;80.87;95083.28;4372009;32;20185;-67
2023/05/22 04:54:18;;;;;;;1.97;1.87;;;;;;;15.85;80.64;95082.50;4359341;32;20248;-67
2023/05/22 04:56:43;;;;;;;3.13;2.30;;;;;;;15.98;80.47;95078.75;4366272;32;20211;-66
2023/05/22 04:59:09;;;;;;;2.70;2.50;;;;;;;16.02;81.04;95093.78;4363191;32;20204;-67
2023/05/22 05:01:34;;;;;;;2.57;2.47;;;;;;;15.96;78.52;95078.31;4356058;32;20184;-67
2023/05/22 05:04:01;;;;;;;2.43;2.23;;;;;;;16.13;79.73;95083.44;4367604;32;20204;-67
2023/05/22 05:06:27;;;;;;;2.43;2.33;;;;;;;16.15;80.17;95081.22;4370015;32;20236;-66
2023/05/22 05:08:52;;;;;;;2.43;2.33;;;;;;;16.18;80.08;95085.91;4357488;32;20193;-67
2023/05/22 05:11:18;;;;;;;2.87;2.63;;;;;;;16.15;81.02;95086.56;4378781;32;20223;-67
2023/05/22 05:13:43;;;;;;;1.60;1.50;;;;;;;16.24;79.88;95084.53;4375280;32;20193;-67
2023/05/22 05:16:08;;;;;;;3.47;3.27;;;;;;;16.20;79.72;95077.53;4362750;32;20192;-67
2023/05/22 05:18:34;;;;;;;2.43;2.33;;;;;;;16.19;80.09;95087.47;4386886;32;20200;-67
2023/05/22 05:20:59;;;;;;;3.47;3.27;;;;;;;16.12;80.78;95081.88;4364130;32;20181;-66
2023/05/22 05:23:25;;;;;;;2.03;1.93;;;;;;;16.18;82.34;95085.13;4374643;32;20215;-66
2023/05/22 05:25:50;;;;;;;2.63;2.27;;;;;;;16.33;81.32;95085.22;4365672;32;20181;-66
2023/05/22 05:28:15;;;;;;;2.77;2.67;;;;;;;16.36;80.90;95083.78;4368790;32;20227;-67
2023/05/22 05:30:41;;;;;;;2.07;1.97;;;;;;;16.30;80.94;95088.56;4359567;32;20189;-67
2023/05/22 05:33:06;;;;;;;2.60;2.40;;;;;;;16.35;80.88;95083.00;4374507;32;20232;-67
2023/05/22 05:35:31;;;;;;;1.73;1.73;;;;;;;16.42;79.62;95088.56;4369327;32;20222;-66
2023/05/22 05:37:57;;;;;;;2.50;2.30;;;;;;;16.39;80.25;95097.28;4366506;32;20236;-66
2023/05/22 05:40:23;;;;;;;4.13;2.73;;;;;;;16.46;79.86;95094.03;4381277;32;20285;-66
2023/05/22 05:42:48;;;;;;;2.60;2.50;;;;;;;16.47;79.59;95092.91;4364176;32;20173;-67
2023/05/22 05:45:15;;;;;;;2.30;2.20;;;;;;;16.50;78.91;95105.63;4375798;32;20180;-67
2023/05/22 05:47:40;;;;;;;2.10;2.00;;;;;;;16.56;79.14;95106.97;4382390;32;20201;-67
2023/05/22 05:50:06;;;;;;;2.30;1.93;;;;;;;16.58;79.38;95102.06;4373952;32;20212;-66
2023/05/22 05:52:32;;;;;;;2.87;2.47;;;;;;;16.71;79.01;95106.31;4385046;32;20185;-67
2023/05/22 05:55:01;;;;;;;2.23;2.13;;;;;;;16.72;79.42;95105.19;4377501;32;20215;-67
2023/05/22 05:57:27;;;;;;;3.33;3.13;;;;;;;16.78;79.03;95103.06;4373924;32;20240;-66
2023/05/22 05:59:52;;;;;;;2.53;2.43;;;;;;;16.81;78.54;95107.75;4371377;32;20188;-67
2023/05/22 06:02:17;;;;;;;2.97;2.87;;;;;;;16.81;78.18;95107.75;4366709;32;20203;-67
2023/05/22 06:04:47;;;;;;;3.00;1.97;;;;;;;16.89;78.32;95106.84;4378027;32;20222;-67
2023/05/22 06:07:12;;;;;;;2.13;2.03;;;;;;;16.95;79.19;95099.34;4365560;32;20181;-67
2023/05/22 06:09:38;;;;;;;2.20;2.00;;;;;;;16.97;78.38;95105.16;4365337;32;21372;-66
2023/05/22 06:12:03;;;;;;;2.00;1.90;;;;;;;16.89;76.42;95112.19;4357737;32;20189;-67
2023/05/22 06:14:29;;;;;;;2.83;2.63;;;;;;;17.03;77.87;95109.16;4359314;32;20232;-66
2023/05/22 06:16:55;;;;;;;3.20;3.00;;;;;;;17.11;76.65;95108.22;4376826;32;20274;-66
2023/05/22 06:19:20;;;;;;;2.43;2.20;;;;;;;17.20;77.28;95102.75;4374420;32;20219;-66
2023/05/22 06:21:45;;;;;;;2.10;2.00;;;;;;;17.27;76.08;95103.72;4367284;32;20251;-67
2023/05/22 06:24:10;;;;;;;2.57;2.47;;;;;;;17.39;75.33;95105.59;4376427;32;20193;-67
2023/05/22 06:26:36;;;;;;;2.17;2.07;;;;;;;17.47;75.52;95108.09;4368527;32;20243;-67
2023/05/22 06:29:01;;;;;;;2.00;1.90;;;;;;;17.54;75.19;95096.78;4351285;32;20197;-66
2023/05/22 06:31:27;;;;;;;2.30;2.20;;;;;;;17.60;74.68;95103.47;4349339;32;20220;-67
2023/05/22 06:33:53;;;;;;;2.20;2.10;;;;;;;17.65;74.86;95103.25;4353232;32;20207;-67
2023/05/22 06:36:18;;;;;;;2.83;2.63;;;;;;;17.82;74.03;95102.94;4354585;32;20241;-67
2023/05/22 06:38:44;;;;;;;1.30;1.30;;;;;;;17.77;73.43;95115.81;4342056;32;20216;-67
2023/05/22 06:41:10;;;;;;;2.87;2.60;;;;;;;17.88;73.98;95100.75;4343969;32;20208;-67
2023/05/22 06:43:36;;;;;;;2.33;2.23;;;;;;;18.01;74.46;95102.28;4345619;32;20213;-67
2023/05/22 06:46:02;;;;;;;5.47;2.43;;;;;;;18.08;74.17;95101.69;4345178;32;20185;-67
2023/05/22 06:48:27;;;;;;;2.63;2.50;;;;;;;18.11;73.84;95103.62;4350905;32;20223;-67
2023/05/22 06:50:52;;;;;;;2.37;2.27;;;;;;;18.25;73.14;95109.38;4343406;32;20205;-67
2023/05/22 06:53:18;;;;;;;2.90;2.27;;;;;;;18.31;72.20;95107.97;4360525;32;20225;-67
2023/05/22 06:55:43;;;;;;;1.93;1.83;;;;;;;18.35;71.54;95108.84;4353255;32;20211;-67
2023/05/22 06:58:08;;;;;;;2.23;2.13;;;;;;;18.40;72.01;95108.59;4346615;32;20283;-67
2023/05/22 07:00:34;;;;;;;1.90;1.80;;;;;;;18.52;71.92;95108.47;4342100;32;20201;-67
2023/05/22 07:02:59;;;;;;;11.43;2.50;;;;;;;18.62;72.13;95106.44;4332266;32;20205;-67
2023/05/22 07:05:24;;;;;;;1.97;1.87;;;;;;;18.63;71.95;95116.81;4347939;32;20181;-67
2023/05/22 07:07:50;;;;;;;1.97;1.87;;;;;;;18.77;71.08;95113.66;4685883;27;20194;-65
2023/05/22 07:10:15;;;;;;;2.63;2.47;;;;;;;18.72;71.55;95111.25;4334935;32;20237;-65
2023/05/22 07:12:40;;;;;;;2.87;2.67;;;;;;;18.76;71.44;95118.25;4350507;32;20193;-65
2023/05/22 07:15:10;;;;;;;3.13;2.83;;;;;;;18.87;71.51;95119.31;4361317;32;20244;-65
2023/05/22 07:17:36;;;;;;;1.87;1.77;;;;;;;18.92;71.16;95120.91;4340066;32;20201;-64
2023/05/22 07:20:02;;;;;;;2.23;2.13;;;;;;;19.03;71.43;95121.16;4327608;32;20252;-64
2023/05/22 07:22:27;;;;;;;2.77;2.47;;;;;;;19.08;71.25;95118.19;4332633;32;20281;-64
2023/05/22 07:24:52;;;;;;;1.70;1.70;;;;;;;19.11;71.15;95118.28;4347428;32;20198;-64
2023/05/22 07:27:18;;;;;;;2.53;2.33;;;;;;;19.16;70.76;95122.56;4338582;32;20193;-63
2023/05/22 07:29:43;;;;;;;1.90;1.80;;;;;;;19.18;71.12;95120.31;4339605;32;20205;-63
2023/05/22 07:32:09;;;;;;;2.80;2.63;;;;;;;19.25;70.48;95122.37;4355125;32;20244;-63
2023/05/22 07:34:34;;;;;;;2.43;2.33;;;;;;;19.32;70.20;95119.84;4340236;32;20193;-64
2023/05/22 07:37:05;;;;;;;2.07;1.97;;;;;;;19.38;70.46;95121.09;4344579;32;20194;-64
2023/05/22 07:39:30;;;;;;;3.20;2.80;;;;;;;19.39;70.32;95118.06;4335278;32;20261;-64
2023/05/22 07:41:55;;;;;;;1.97;1.87;;;;;;;19.53;69.46;95123.00;4337465;32;20216;-65
2023/05/22 07:44:21;;;;;;;1.77;1.67;;;;;;;19.63;69.34;95117.03;4331783;32;20259;-64
2023/05/22 07:46:46;;;;;;;3.00;1.47;;;;;;;19.67;68.75;95123.25;4341721;32;20178;-64
2023/05/22 07:49:15;;;;;;;2.73;2.57;;;;;;;19.68;69.31;95122.13;4335495;32;20212;-64
2023/05/22 07:51:40;;;;;;;2.60;2.43;;;;;;;19.78;69.36;95120.75;4354670;32;20232;-64
2023/05/22 07:54:06;;;;;;;2.33;2.23;;;;;;;19.77;69.08;95122.66;4334480;32;20190;-64
2023/05/22 07:56:33;;;;;;;2.20;2.10;;;;;;;19.87;69.29;95126.72;4332197;32;20233;-63
2023/05/22 07:58:59;;;;;;;2.60;2.40;;;;;;;19.88;69.57;95129.03;4333164;32;20252;-63
2023/05/22 08:01:25;;;;;;;5.03;2.57;;;;;;;19.88;69.47;95129.03;4343288;32;20268;-64
2023/05/22 08:03:50;;;;;;;2.80;2.60;;;;;;;19.90;69.53;95123.31;4334647;32;20186;-64
2023/05/22 08:06:16;;;;;;;3.77;3.47;;;;;;;19.88;69.31;95129.03;4354256;32;20186;-64
2023/05/22 08:08:42;;;;;;;2.43;2.23;;;;;;;19.94;69.51;95120.69;4351940;32;20194;-63
2023/05/22 08:11:07;;;;;;;2.23;2.13;;;;;;;19.98;69.29;95124.19;4333464;32;20193;-62
2023/05/22 08:13:32;;;;;;;2.00;1.77;;;;;;;19.93;69.38;95125.28;4333854;32;20193;-65
2023/05/22 08:15:58;;;;;;;2.00;1.90;;;;;;;20.00;69.45;95122.69;4343758;32;20198;-63
2023/05/22 08:18:26;;;;;;;2.40;2.30;;;;;;;20.07;69.50;95122.06;4337771;32;20243;-64
2023/05/22 08:20:52;;;;;;;2.23;2.13;;;;;;;20.11;70.24;95120.22;4335677;32;20228;-65
2023/05/22 08:23:18;;;;;;;5.13;2.73;;;;;;;20.13;70.27;95120.63;4339748;32;20197;-65
2023/05/22 08:25:43;;;;;;;2.60;2.50;;;;;;;20.20;69.58;95112.66;4333166;32;20181;-63
2023/05/22 08:28:08;;;;;;;2.03;1.93;;;;;;;20.26;69.68;95122.00;4338653;32;20329;-63
2023/05/22 08:30:35;;;;;;;2.20;2.10;;;;;;;20.27;69.38;95115.47;4355628;32;20224;-64
2023/05/22 08:33:01;;;;;;;1.80;1.73;;;;;;;20.25;69.63;95115.84;4361610;32;20193;-63
2023/05/22 08:35:26;;;;;;;3.93;3.10;;;;;;;20.28;69.86;95117.03;4333269;32;20208;-63
2023/05/22 08:37:52;;;;;;;1.97;1.87;;;;;;;20.37;68.76;95112.19;4347689;32;20269;-63
2023/05/22 08:40:19;;;;;;;2.67;2.57;;;;;;;20.48;68.18;95107.75;4350215;32;20201;-63
2023/05/22 08:42:44;;;;;;;2.43;2.23;;;;;;;20.48;68.38;95105.06;4352700;32;20206;-64
2023/05/22 08:45:10;;;;;;;1.77;1.77;;;;;;;20.42;69.39;95098.41;4353452;32;20225;-65
2023/05/22 08:47:36;;;;;;;2.30;2.20;;;;;;;20.41;69.45;95101.47;4334128;32;20186;-65
2023/05/22 08:50:02;;;;;;;1.53;1.50;;;;;;;20.40;69.48;95095.31;4340058;32;20244;-65
2023/05/22 08:52:41;;;;;;;3.50;2.33;;;;;;;20.42;69.71;95093.03;4326037;32;20213;-65
2023/05/22 08:55:07;;;;;;;3.13;2.93;;;;;;;20.38;69.81;95102.19;4336038;32;20239;-65
2023/05/22 08:57:33;;;;;;;2.90;2.70;;;;;;;20.35;69.95;95103.69;4362050;32;20204;-65
2023/05/22 08:59:59;;;;;;;4.13;3.80;;;;;;;20.40;70.36;95105.31;4328916;32;20252;-65
2023/05/22 09:02:25;;;;;;;2.50;2.37;;;;;;;20.27;70.54;95095.84;4332540;32;20236;-65
2023/05/22 09:04:51;;;;;;;4.03;3.27;;;;;;;20.25;70.56;95096.97;4352593;32;20186;-64
2023/05/22 09:07:17;;;;;;;2.50;2.33;;;;;;;20.29;70.29;95098.94;4337857;32;20236;-65
2023/05/22 09:09:42;;;;;;;2.17;2.07;;;;;;;20.33;70.34;95097.88;4339939;32;20215;-65
2023/05/22 09:12:09;;;;;;;3.27;3.07;;;;;;;20.34;71.25;95099.44;4333018;32;20207;-65
2023/05/22 09:14:42;;;;;;;2.47;2.30;;;;;;;20.23;70.98;95095.78;4335388;32;20198;-65
2023/05/22 09:17:13;;;;;;;1.90;1.80;;;;;;;20.33;70.45;95100.56;4347542;32;20217;-65
2023/05/22 09:19:42;;;;;;;2.77;2.57;;;;;;;20.31;70.78;95102.06;4355270;32;20201;-65
2023/05/22 09:22:08;;;;;;;3.53;3.33;;;;;;;20.36;70.60;95099.84;4344005;32;20296;-64
2023/05/22 09:24:43;;;;;;;2.17;2.07;;;;;;;20.41;70.77;95091.47;4344643;32;20257;-65
2023/05/22 09:27:09;;;;;;;2.63;2.53;;;;;;;20.39;70.40;95104.53;4337826;32;20287;-64
2023/05/22 09:29:51;;;;;;;3.00;2.77;;;;;;;20.37;70.81;95096.03;4343459;32;20205;-66
2023/05/22 09:32:18;;;;;;;4.60;2.60;;;;;;;20.40;70.89;95098.00;4352803;32;20225;-66
2023/05/22 09:34:45;;;;;;;3.33;2.80;;;;;;;20.55;70.12;95099.78;4341454;32;20209;-66
2023/05/22 09:37:14;;;;;;;2.97;2.77;;;;;;;20.64;69.82;95098.75;4347088;32;20208;-64
2023/05/22 09:39:43;;;;;;;1.73;1.73;;;;;;;20.72;69.90;95100.41;4338978;32;20295;-64
2023/05/22 09:42:13;;;;;;;2.37;2.27;;;;;;;20.97;68.35;95100.78;4339288;32;20201;-65
2023/05/22 09:44:41;;;;;;;1.97;1.87;;;;;;;21.04;67.67;95100.84;4348807;32;20205;-64
2023/05/22 09:47:07;;;;;;;2.20;2.10;;;;;;;21.18;66.56;95098.34;4336905;32;20211;-64
2023/05/22 09:49:43;;;;;;;2.20;2.10;;;;;;;21.23;67.39;95103.44;4344783;32;20193;-66
2023/05/22 09:52:11;;;;;;;2.10;2.03;;;;;;;21.31;66.87;95104.31;4335124;32;20236;-65
2023/05/22 09:54:48;;;;;;;1.23;1.23;;;;;;;21.32;66.35;95100.47;4344940;32;20186;-64
2023/05/22 09:57:17;;;;;;;2.10;2.00;;;;;;;21.32;66.06;95097.78;4345955;32;20248;-65
2023/05/22 09:59:45;;;;;;;5.70;2.60;;;;;;;21.35;66.25;95100.53;4341454;32;20224;-64
2023/05/22 10:02:12;;;;;;;2.73;2.53;;;;;;;21.38;66.32;95099.78;4345665;32;20232;-65
2023/05/22 10:04:40;;;;;;;2.67;2.57;;;;;;;21.46;65.75;95096.00;4329662;32;20200;-64
2023/05/22 10:07:07;;;;;;;2.17;2.10;;;;;;;21.55;65.50;95095.75;4341092;32;20186;-64
2023/05/22 10:09:37;;;;;;;2.73;2.63;;;;;;;21.64;64.77;95098.91;4363587;32;20213;-64
2023/05/22 10:12:06;;;;;;;2.67;2.47;;;;;;;21.74;65.07;95095.56;4368512;32;20241;-65
2023/05/22 10:14:33;;;;;;;2.47;2.27;;;;;;;21.39;66.47;95095.94;4362811;32;20193;-65
2023/05/22 10:17:03;;;;;;;1.40;1.40;;;;;;;21.42;65.94;95105.22;4346109;32;20329;-65
2023/05/22 10:19:31;;;;;;;2.73;2.63;;;;;;;21.40;66.06;95102.13;4347481;32;20265;-65
2023/05/22 10:21:59;;;;;;;3.07;2.87;;;;;;;21.52;65.66;95099.16;4364008;32;20260;-65
2023/05/22 10:24:24;;;;;;;2.67;2.47;;;;;;;21.69;65.21;95093.19;4351943;32;20197;-65
2023/05/22 10:26:52;;;;;;;3.70;3.40;;;;;;;21.74;65.32;95090.16;4344932;32;20212;-65
2023/05/22 10:29:21;;;;;;;2.67;2.47;;;;;;;21.40;66.93;95096.72;4336852;32;20198;-65
2023/05/22 10:32:20;;;;;;;2.47;2.27;;;;;;;21.07;66.73;95095.50;4346974;32;20220;-68
2023/05/22 10:34:55;;;;;;;2.17;2.07;;;;;;;21.71;65.00;95093.59;4351646;32;20201;-68
2023/05/22 10:37:35;;;;;;;2.30;2.20;;;;;;;21.66;64.37;95093.91;4354034;32;20230;-66
2023/05/22 10:40:06;;;;;;;3.47;3.27;;;;;;;21.67;64.40;95090.06;4344807;32;20193;-67
2023/05/22 10:42:31;;;;;;;2.50;2.30;;;;;;;21.43;66.42;95099.44;4353075;32;20209;-66
2023/05/22 10:44:59;;;;;;;2.50;2.40;;;;;;;21.26;67.18;95086.53;4358938;32;20181;-66
2023/05/22 10:47:25;;;;;;;2.67;2.57;;;;;;;21.06;68.22;95090.47;4355857;32;20229;-66
2023/05/22 10:50:02;;;;;;;3.30;3.00;;;;;;;21.11;67.98;95088.25;4355161;32;20193;-66
2023/05/22 10:52:27;;;;;;;2.33;2.23;;;;;;;21.06;68.52;95090.47;4346790;32;20189;-66
2023/05/22 10:54:53;;;;;;;2.33;2.23;;;;;;;21.16;68.01;95087.94;4346016;32;20185;-67
2023/05/22 10:57:19;;;;;;;3.87;3.03;;;;;;;21.04;68.54;95088.12;4347498;32;20219;-66
2023/05/22 10:59:47;;;;;;;3.33;3.03;;;;;;;21.01;68.85;95085.37;4354007;32;20240;-66
2023/05/22 11:02:37;;;;;;;3.50;3.30;;;;;;;21.06;69.83;95088.56;4361718;32;20249;-66
2023/05/22 11:05:17;;;;;;;2.73;2.53;;;;;;;21.44;68.51;95076.72;4369711;32;20199;-66
2023/05/22 11:07:43;;;;;;;2.57;2.47;;;;;;;21.39;68.38;95079.75;4355563;32;20240;-66
2023/05/22 11:10:08;;;;;;;2.37;2.27;;;;;;;21.15;68.61;95075.56;4364361;32;20201;-66
2023/05/22 11:12:34;;;;;;;3.10;3.00;;;;;;;21.18;68.76;95074.84;4364883;32;20232;-66
2023/05/22 11:15:10;;;;;;;2.37;2.17;;;;;;;21.31;67.77;95074.63;4360522;32;20284;-66
2023/05/22 11:17:38;;;;;;;2.67;2.57;;;;;;;21.65;66.62;95076.16;4365730;32;20188;-66
2023/05/22 11:20:19;;;;;;;3.13;2.93;;;;;;;22.27;64.94;95079.09;4355521;32;20184;-67
2023/05/22 11:22:59;;;;;;;4.33;3.23;;;;;;;21.73;65.72;95072.41;4360085;32;20181;-66
2023/05/22 11:25:26;;;;;;;2.37;2.27;;;;;;;22.17;64.99;95074.38;4372613;32;20193;-65
2023/05/22 11:27:52;;;;;;;2.67;2.47;;;;;;;21.87;65.53;95072.53;4361452;32;20232;-65
2023/05/22 11:30:18;;;;;;;3.10;2.90;;;;;;;22.21;65.14;95077.91;4356978;32;20219;-66
2023/05/22 11:32:45;;;;;;;2.37;2.27;;;;;;;21.74;66.46;95068.56;4359230;32;20216;-67
2023/05/22 11:35:18;;;;;;;3.17;2.97;;;;;;;21.81;66.18;95067.84;4356137;32;20181;-65